sensor_id;sensor_type;location;lat;lon;timestamp;P1;durP1;ratioP1;P2;durP2;ratioP2
4704;SDS011;2366;51.332;6.610;2022-09-03T00:00:37;2.45;;;2.25;;
4704;SDS011;2366;51.332;6.610;2022-09-03T00:03:17;2.50;;;2.30;;
4704;SDS011;2366;51.332;6.610;2022-09-03T00:08:36;2.25;;;2.15;;
4704;SDS011;2366;51.332;6.610;2022-09-03T00:13:43;2.65;;;2.08;;
4704;SDS011;2366;51.332;6.610;2022-09-03T00:16:14;8.23;;;2.92;;
4704;SDS011;2366;51.332;6.610;2022-09-03T00:18:46;3.78;;;2.80;;
4704;SDS011;2366;51.332;6.610;2022-09-03T00:21:33;10.75;;;3.00;;
4704;SDS011;2366;51.332;6.610;2022-09-03T00:24:02;5.47;;;2.38;;
4704;SDS011;2366;51.332;6.610;2022-09-03T00:26:32;2.20;;;2.00;;
4704;SDS011;2366;51.332;6.610;2022-09-03T00:29:11;4.72;;;1.63;;
4704;SDS011;2366;51.332;6.610;2022-09-03T00:31:48;2.28;;;1.92;;
4704;SDS011;2366;51.332;6.610;2022-09-03T00:34:25;5.57;;;2.67;;
4704;SDS011;2366;51.332;6.610;2022-09-03T00:36:54;3.63;;;2.33;;
4704;SDS011;2366;51.332;6.610;2022-09-03T00:39:22;6.80;;;1.90;;
4704;SDS011;2366;51.332;6.610;2022-09-03T00:44:31;2.53;;;1.83;;
4704;SDS011;2366;51.332;6.610;2022-09-03T00:50:02;2.67;;;1.80;;
4704;SDS011;2366;51.332;6.610;2022-09-03T00:58:29;4.78;;;2.20;;
4704;SDS011;2366;51.332;6.610;2022-09-03T01:01:29;9.02;;;2.33;;
4704;SDS011;2366;51.332;6.610;2022-09-03T01:06:57;1.40;;;1.30;;
4704;SDS011;2366;51.332;6.610;2022-09-03T01:09:58;5.47;;;1.50;;
4704;SDS011;2366;51.332;6.610;2022-09-03T01:15:52;4.93;;;1.52;;
4704;SDS011;2366;51.332;6.610;2022-09-03T01:23:52;2.33;;;1.75;;
4704;SDS011;2366;51.332;6.610;2022-09-03T01:26:30;2.25;;;1.52;;
4704;SDS011;2366;51.332;6.610;2022-09-03T01:31:51;1.40;;;1.30;;
4704;SDS011;2366;51.332;6.610;2022-09-03T01:37:08;1.52;;;1.42;;
4704;SDS011;2366;51.332;6.610;2022-09-03T01:40:03;1.25;;;1.15;;
4704;SDS011;2366;51.332;6.610;2022-09-03T01:42:43;2.97;;;1.80;;
4704;SDS011;2366;51.332;6.610;2022-09-03T01:50:39;3.40;;;1.45;;
4704;SDS011;2366;51.332;6.610;2022-09-03T01:53:35;1.55;;;1.45;;
4704;SDS011;2366;51.332;6.610;2022-09-03T01:58:53;1.92;;;1.50;;
4704;SDS011;2366;51.332;6.610;2022-09-03T02:01:34;2.90;;;1.75;;
4704;SDS011;2366;51.332;6.610;2022-09-03T02:04:21;1.40;;;1.30;;
4704;SDS011;2366;51.332;6.610;2022-09-03T02:06:52;2.55;;;1.73;;
4704;SDS011;2366;51.332;6.610;2022-09-03T02:09:21;6.35;;;1.75;;
4704;SDS011;2366;51.332;6.610;2022-09-03T02:12:10;3.40;;;1.40;;
4704;SDS011;2366;51.332;6.610;2022-09-03T02:14:38;3.10;;;2.00;;
4704;SDS011;2366;51.332;6.610;2022-09-03T02:17:04;1.67;;;1.43;;
4704;SDS011;2366;51.332;6.610;2022-09-03T02:19:31;1.60;;;1.50;;
4704;SDS011;2366;51.332;6.610;2022-09-03T02:21:58;1.95;;;1.35;;
4704;SDS011;2366;51.332;6.610;2022-09-03T02:24:24;2.77;;;1.37;;
4704;SDS011;2366;51.332;6.610;2022-09-03T02:26:52;2.60;;;2.20;;
4704;SDS011;2366;51.332;6.610;2022-09-03T02:29:17;1.57;;;1.47;;
4704;SDS011;2366;51.332;6.610;2022-09-03T02:31:43;2.90;;;1.30;;
4704;SDS011;2366;51.332;6.610;2022-09-03T02:34:09;2.20;;;1.63;;
4704;SDS011;2366;51.332;6.610;2022-09-03T02:36:37;1.87;;;1.77;;
4704;SDS011;2366;51.332;6.610;2022-09-03T02:39:05;2.75;;;1.60;;
4704;SDS011;2366;51.332;6.610;2022-09-03T02:41:32;2.30;;;1.57;;
4704;SDS011;2366;51.332;6.610;2022-09-03T02:46:51;3.42;;;1.55;;
4704;SDS011;2366;51.332;6.610;2022-09-03T02:49:21;1.48;;;1.38;;
4704;SDS011;2366;51.332;6.610;2022-09-03T02:51:46;1.87;;;1.57;;
4704;SDS011;2366;51.332;6.610;2022-09-03T02:54:12;1.80;;;1.30;;
4704;SDS011;2366;51.332;6.610;2022-09-03T02:56:37;1.57;;;1.37;;
4704;SDS011;2366;51.332;6.610;2022-09-03T02:59:04;1.83;;;1.73;;
4704;SDS011;2366;51.332;6.610;2022-09-03T03:01:31;1.50;;;1.15;;
4704;SDS011;2366;51.332;6.610;2022-09-03T03:03:56;2.70;;;1.77;;
4704;SDS011;2366;51.332;6.610;2022-09-03T03:06:22;1.57;;;1.43;;
4704;SDS011;2366;51.332;6.610;2022-09-03T03:08:47;1.87;;;1.30;;
4704;SDS011;2366;51.332;6.610;2022-09-03T03:11:14;1.90;;;1.25;;
4704;SDS011;2366;51.332;6.610;2022-09-03T03:13:42;2.75;;;1.13;;
4704;SDS011;2366;51.332;6.610;2022-09-03T03:16:09;2.10;;;1.60;;
4704;SDS011;2366;51.332;6.610;2022-09-03T03:18:35;2.10;;;1.70;;
4704;SDS011;2366;51.332;6.610;2022-09-03T03:21:04;1.40;;;1.30;;
4704;SDS011;2366;51.332;6.610;2022-09-03T03:23:34;1.88;;;1.30;;
4704;SDS011;2366;51.332;6.610;2022-09-03T03:26:03;1.50;;;1.40;;
4704;SDS011;2366;51.332;6.610;2022-09-03T03:28:31;2.72;;;1.40;;
4704;SDS011;2366;51.332;6.610;2022-09-03T03:31:19;3.22;;;1.77;;
4704;SDS011;2366;51.332;6.610;2022-09-03T03:33:49;3.15;;;1.88;;
4704;SDS011;2366;51.332;6.610;2022-09-03T03:36:26;4.00;;;1.40;;
4704;SDS011;2366;51.332;6.610;2022-09-03T03:38:53;1.70;;;1.60;;
4704;SDS011;2366;51.332;6.610;2022-09-03T03:41:21;6.50;;;1.50;;
4704;SDS011;2366;51.332;6.610;2022-09-03T03:43:54;1.60;;;1.40;;
4704;SDS011;2366;51.332;6.610;2022-09-03T03:46:20;1.40;;;1.25;;
4704;SDS011;2366;51.332;6.610;2022-09-03T03:48:47;2.70;;;1.45;;
4704;SDS011;2366;51.332;6.610;2022-09-03T03:51:13;1.23;;;1.10;;
4704;SDS011;2366;51.332;6.610;2022-09-03T03:53:39;4.77;;;2.57;;
4704;SDS011;2366;51.332;6.610;2022-09-03T03:56:05;2.37;;;1.60;;
4704;SDS011;2366;51.332;6.610;2022-09-03T03:58:34;2.83;;;1.83;;
4704;SDS011;2366;51.332;6.610;2022-09-03T04:01:04;2.03;;;1.52;;
4704;SDS011;2366;51.332;6.610;2022-09-03T04:03:31;1.35;;;1.25;;
4704;SDS011;2366;51.332;6.610;2022-09-03T04:05:57;4.73;;;1.73;;
4704;SDS011;2366;51.332;6.610;2022-09-03T04:08:24;1.42;;;1.27;;
4704;SDS011;2366;51.332;6.610;2022-09-03T04:10:50;1.98;;;1.45;;
4704;SDS011;2366;51.332;6.610;2022-09-03T04:13:16;2.30;;;1.13;;
4704;SDS011;2366;51.332;6.610;2022-09-03T04:15:41;14.13;;;2.27;;
4704;SDS011;2366;51.332;6.610;2022-09-03T04:18:07;3.50;;;1.90;;
4704;SDS011;2366;51.332;6.610;2022-09-03T04:20:32;4.60;;;2.47;;
4704;SDS011;2366;51.332;6.610;2022-09-03T04:23:00;1.80;;;1.65;;
4704;SDS011;2366;51.332;6.610;2022-09-03T04:25:26;2.53;;;1.45;;
4704;SDS011;2366;51.332;6.610;2022-09-03T04:27:52;1.50;;;1.40;;
4704;SDS011;2366;51.332;6.610;2022-09-03T04:30:17;2.00;;;1.33;;
4704;SDS011;2366;51.332;6.610;2022-09-03T04:32:43;2.08;;;1.92;;
4704;SDS011;2366;51.332;6.610;2022-09-03T04:35:27;3.35;;;2.08;;
4704;SDS011;2366;51.332;6.610;2022-09-03T04:37:53;2.60;;;1.65;;
4704;SDS011;2366;51.332;6.610;2022-09-03T04:40:19;2.40;;;1.87;;
4704;SDS011;2366;51.332;6.610;2022-09-03T04:42:44;1.47;;;1.37;;
4704;SDS011;2366;51.332;6.610;2022-09-03T04:45:10;2.00;;;1.50;;
4704;SDS011;2366;51.332;6.610;2022-09-03T04:47:36;1.50;;;1.40;;
4704;SDS011;2366;51.332;6.610;2022-09-03T04:50:03;4.63;;;2.20;;
4704;SDS011;2366;51.332;6.610;2022-09-03T04:52:29;1.63;;;1.52;;
4704;SDS011;2366;51.332;6.610;2022-09-03T04:54:55;2.00;;;1.63;;
4704;SDS011;2366;51.332;6.610;2022-09-03T04:57:21;2.40;;;1.90;;
4704;SDS011;2366;51.332;6.610;2022-09-03T04:59:47;1.80;;;1.27;;
4704;SDS011;2366;51.332;6.610;2022-09-03T05:02:12;4.07;;;2.17;;
4704;SDS011;2366;51.332;6.610;2022-09-03T05:04:38;2.90;;;1.47;;
4704;SDS011;2366;51.332;6.610;2022-09-03T05:07:03;3.40;;;2.00;;
4704;SDS011;2366;51.332;6.610;2022-09-03T05:09:29;2.80;;;1.60;;
4704;SDS011;2366;51.332;6.610;2022-09-03T05:11:55;9.43;;;3.03;;
4704;SDS011;2366;51.332;6.610;2022-09-03T05:14:20;9.23;;;2.80;;
4704;SDS011;2366;51.332;6.610;2022-09-03T05:16:45;3.93;;;1.70;;
4704;SDS011;2366;51.332;6.610;2022-09-03T05:19:11;8.63;;;2.00;;
4704;SDS011;2366;51.332;6.610;2022-09-03T05:21:36;1.90;;;1.57;;
4704;SDS011;2366;51.332;6.610;2022-09-03T05:24:02;2.80;;;2.30;;
4704;SDS011;2366;51.332;6.610;2022-09-03T05:26:29;9.40;;;2.97;;
4704;SDS011;2366;51.332;6.610;2022-09-03T05:28:57;21.63;;;4.13;;
4704;SDS011;2366;51.332;6.610;2022-09-03T05:31:27;23.15;;;3.25;;
4704;SDS011;2366;51.332;6.610;2022-09-03T05:33:56;17.70;;;3.35;;
4704;SDS011;2366;51.332;6.610;2022-09-03T05:36:24;6.97;;;2.70;;
4704;SDS011;2366;51.332;6.610;2022-09-03T05:38:53;6.95;;;2.17;;
4704;SDS011;2366;51.332;6.610;2022-09-03T05:41:19;21.10;;;3.80;;
4704;SDS011;2366;51.332;6.610;2022-09-03T05:43:47;8.27;;;2.20;;
4704;SDS011;2366;51.332;6.610;2022-09-03T05:46:19;4.73;;;2.30;;
4704;SDS011;2366;51.332;6.610;2022-09-03T05:48:45;15.17;;;2.80;;
4704;SDS011;2366;51.332;6.610;2022-09-03T05:51:14;8.13;;;2.33;;
4704;SDS011;2366;51.332;6.610;2022-09-03T05:53:41;5.50;;;2.53;;
4704;SDS011;2366;51.332;6.610;2022-09-03T05:56:09;2.53;;;1.17;;
4704;SDS011;2366;51.332;6.610;2022-09-03T05:58:37;2.57;;;1.43;;
4704;SDS011;2366;51.332;6.610;2022-09-03T06:01:08;1.70;;;1.53;;
4704;SDS011;2366;51.332;6.610;2022-09-03T06:03:38;2.27;;;1.60;;
4704;SDS011;2366;51.332;6.610;2022-09-03T06:06:05;1.87;;;1.20;;
4704;SDS011;2366;51.332;6.610;2022-09-03T06:08:31;2.93;;;1.10;;
4704;SDS011;2366;51.332;6.610;2022-09-03T06:10:57;1.13;;;1.03;;
4704;SDS011;2366;51.332;6.610;2022-09-03T06:13:28;1.30;;;1.20;;
4704;SDS011;2366;51.332;6.610;2022-09-03T06:15:57;1.73;;;1.53;;
4704;SDS011;2366;51.332;6.610;2022-09-03T06:18:24;1.03;;;0.97;;
4704;SDS011;2366;51.332;6.610;2022-09-03T06:20:57;13.03;;;1.27;;
4704;SDS011;2366;51.332;6.610;2022-09-03T06:23:27;19.73;;;1.47;;
4704;SDS011;2366;51.332;6.610;2022-09-03T06:28:33;9.13;;;2.27;;
4704;SDS011;2366;51.332;6.610;2022-09-03T06:31:00;2.90;;;1.17;;
4704;SDS011;2366;51.332;6.610;2022-09-03T06:33:27;2.30;;;1.20;;
4704;SDS011;2366;51.332;6.610;2022-09-03T06:35:55;1.00;;;0.90;;
4704;SDS011;2366;51.332;6.610;2022-09-03T06:38:22;1.63;;;0.83;;
4704;SDS011;2366;51.332;6.610;2022-09-03T06:40:55;0.87;;;0.80;;
4704;SDS011;2366;51.332;6.610;2022-09-03T06:43:27;4.30;;;0.80;;
4704;SDS011;2366;51.332;6.610;2022-09-03T06:46:00;1.80;;;0.80;;
4704;SDS011;2366;51.332;6.610;2022-09-03T06:48:28;3.40;;;1.03;;
4704;SDS011;2366;51.332;6.610;2022-09-03T06:53:23;0.80;;;0.60;;
4704;SDS011;2366;51.332;6.610;2022-09-03T06:55:56;5.23;;;0.90;;
4704;SDS011;2366;51.332;6.610;2022-09-03T06:58:23;0.90;;;0.80;;
4704;SDS011;2366;51.332;6.610;2022-09-03T07:00:50;3.23;;;0.90;;
4704;SDS011;2366;51.332;6.610;2022-09-03T07:03:18;1.87;;;0.70;;
4704;SDS011;2366;51.332;6.610;2022-09-03T07:05:45;1.83;;;0.90;;
4704;SDS011;2366;51.332;6.610;2022-09-03T07:08:10;1.20;;;0.90;;
4704;SDS011;2366;51.332;6.610;2022-09-03T07:10:36;0.60;;;0.57;;
4704;SDS011;2366;51.332;6.610;2022-09-03T07:13:03;0.73;;;0.73;;
4704;SDS011;2366;51.332;6.610;2022-09-03T07:15:30;1.23;;;0.60;;
4704;SDS011;2366;51.332;6.610;2022-09-03T07:17:57;0.90;;;0.90;;
4704;SDS011;2366;51.332;6.610;2022-09-03T07:20:22;5.37;;;1.30;;
4704;SDS011;2366;51.332;6.610;2022-09-03T07:22:48;1.60;;;0.60;;
4704;SDS011;2366;51.332;6.610;2022-09-03T07:25:13;0.50;;;0.50;;
4704;SDS011;2366;51.332;6.610;2022-09-03T07:27:38;1.13;;;0.90;;
4704;SDS011;2366;51.332;6.610;2022-09-03T07:30:04;0.73;;;0.73;;
4704;SDS011;2366;51.332;6.610;2022-09-03T07:32:33;0.80;;;0.63;;
4704;SDS011;2366;51.332;6.610;2022-09-03T07:35:00;1.03;;;0.70;;
4704;SDS011;2366;51.332;6.610;2022-09-03T07:37:26;1.07;;;0.97;;
4704;SDS011;2366;51.332;6.610;2022-09-03T07:39:51;0.70;;;0.57;;
4704;SDS011;2366;51.332;6.610;2022-09-03T07:42:17;0.57;;;0.50;;
4704;SDS011;2366;51.332;6.610;2022-09-03T07:44:44;0.90;;;0.60;;
4704;SDS011;2366;51.332;6.610;2022-09-03T07:47:09;0.77;;;0.63;;
4704;SDS011;2366;51.332;6.610;2022-09-03T07:49:35;1.07;;;0.97;;
4704;SDS011;2366;51.332;6.610;2022-09-03T07:52:00;2.83;;;0.77;;
4704;SDS011;2366;51.332;6.610;2022-09-03T07:54:27;0.60;;;0.60;;
4704;SDS011;2366;51.332;6.610;2022-09-03T07:56:52;3.10;;;0.73;;
4704;SDS011;2366;51.332;6.610;2022-09-03T07:59:18;1.10;;;0.50;;
4704;SDS011;2366;51.332;6.610;2022-09-03T08:01:44;1.90;;;0.93;;
4704;SDS011;2366;51.332;6.610;2022-09-03T08:04:09;0.93;;;0.70;;
4704;SDS011;2366;51.332;6.610;2022-09-03T08:06:36;0.50;;;0.43;;
4704;SDS011;2366;51.332;6.610;2022-09-03T08:09:04;1.83;;;0.90;;
4704;SDS011;2366;51.332;6.610;2022-09-03T08:11:32;1.87;;;1.00;;
4704;SDS011;2366;51.332;6.610;2022-09-03T08:14:01;1.67;;;0.80;;
4704;SDS011;2366;51.332;6.610;2022-09-03T08:16:35;0.70;;;0.60;;
4704;SDS011;2366;51.332;6.610;2022-09-03T08:19:03;1.10;;;0.90;;
4704;SDS011;2366;51.332;6.610;2022-09-03T08:21:29;0.80;;;0.60;;
4704;SDS011;2366;51.332;6.610;2022-09-03T08:23:55;1.53;;;0.93;;
4704;SDS011;2366;51.332;6.610;2022-09-03T08:26:28;0.97;;;0.60;;
4704;SDS011;2366;51.332;6.610;2022-09-03T08:28:58;1.50;;;0.70;;
4704;SDS011;2366;51.332;6.610;2022-09-03T08:31:24;0.80;;;0.60;;
4704;SDS011;2366;51.332;6.610;2022-09-03T08:33:52;2.43;;;0.60;;
4704;SDS011;2366;51.332;6.610;2022-09-03T08:36:20;1.23;;;0.67;;
4704;SDS011;2366;51.332;6.610;2022-09-03T08:38:49;0.60;;;0.60;;
4704;SDS011;2366;51.332;6.610;2022-09-03T08:41:31;3.60;;;0.90;;
4704;SDS011;2366;51.332;6.610;2022-09-03T08:46:32;3.07;;;0.50;;
4704;SDS011;2366;51.332;6.610;2022-09-03T08:49:08;1.27;;;0.70;;
4704;SDS011;2366;51.332;6.610;2022-09-03T08:51:37;0.70;;;0.67;;
4704;SDS011;2366;51.332;6.610;2022-09-03T08:54:04;0.63;;;0.60;;
4704;SDS011;2366;51.332;6.610;2022-09-03T08:56:33;0.50;;;0.50;;
4704;SDS011;2366;51.332;6.610;2022-09-03T08:59:03;2.20;;;0.50;;
4704;SDS011;2366;51.332;6.610;2022-09-03T09:01:33;0.90;;;0.70;;
4704;SDS011;2366;51.332;6.610;2022-09-03T09:12:52;0.80;;;0.80;;
4704;SDS011;2366;51.332;6.610;2022-09-03T09:15:47;0.80;;;0.70;;
4704;SDS011;2366;51.332;6.610;2022-09-03T09:21:22;0.60;;;0.60;;
4704;SDS011;2366;51.332;6.610;2022-09-03T09:23:52;1.53;;;0.77;;
4704;SDS011;2366;51.332;6.610;2022-09-03T09:26:26;2.50;;;0.80;;
4704;SDS011;2366;51.332;6.610;2022-09-03T09:29:03;0.80;;;0.70;;
4704;SDS011;2366;51.332;6.610;2022-09-03T09:31:33;5.00;;;0.70;;
4704;SDS011;2366;51.332;6.610;2022-09-03T09:34:05;1.23;;;1.13;;
4704;SDS011;2366;51.332;6.610;2022-09-03T09:36:36;1.10;;;0.80;;
4704;SDS011;2366;51.332;6.610;2022-09-03T09:39:18;0.80;;;0.60;;
4704;SDS011;2366;51.332;6.610;2022-09-03T09:42:19;0.87;;;0.80;;
4704;SDS011;2366;51.332;6.610;2022-09-03T09:44:37;1.00;;;0.93;;
4704;SDS011;2366;51.332;6.610;2022-09-03T09:47:07;1.37;;;1.10;;
4704;SDS011;2366;51.332;6.610;2022-09-03T09:49:37;0.77;;;0.70;;
4704;SDS011;2366;51.332;6.610;2022-09-03T09:52:16;3.17;;;0.80;;
4704;SDS011;2366;51.332;6.610;2022-09-03T09:54:42;1.17;;;0.90;;
4704;SDS011;2366;51.332;6.610;2022-09-03T09:57:14;0.80;;;0.70;;
4704;SDS011;2366;51.332;6.610;2022-09-03T09:59:42;6.00;;;0.80;;
4704;SDS011;2366;51.332;6.610;2022-09-03T10:02:11;6.23;;;1.33;;
4704;SDS011;2366;51.332;6.610;2022-09-03T10:04:38;1.07;;;0.97;;
4704;SDS011;2366;51.332;6.610;2022-09-03T10:07:26;0.97;;;0.90;;
4704;SDS011;2366;51.332;6.610;2022-09-03T10:10:06;1.37;;;0.97;;
4704;SDS011;2366;51.332;6.610;2022-09-03T10:12:41;2.23;;;1.00;;
4704;SDS011;2366;51.332;6.610;2022-09-03T10:15:28;1.30;;;1.20;;
4704;SDS011;2366;51.332;6.610;2022-09-03T10:23:53;1.90;;;1.70;;
4704;SDS011;2366;51.332;6.610;2022-09-03T10:26:23;1.67;;;1.40;;
4704;SDS011;2366;51.332;6.610;2022-09-03T10:29:02;1.77;;;1.23;;
4704;SDS011;2366;51.332;6.610;2022-09-03T10:34:17;1.37;;;1.27;;
4704;SDS011;2366;51.332;6.610;2022-09-03T10:44:58;3.67;;;1.43;;
4704;SDS011;2366;51.332;6.610;2022-09-03T11:02:11;1.70;;;1.60;;
4704;SDS011;2366;51.332;6.610;2022-09-03T11:07:50;2.30;;;1.73;;
4704;SDS011;2366;51.332;6.610;2022-09-03T11:10:29;1.20;;;1.10;;
4704;SDS011;2366;51.332;6.610;2022-09-03T11:18:23;1.47;;;1.37;;
4704;SDS011;2366;51.332;6.610;2022-09-03T11:20:57;1.67;;;1.57;;
4704;SDS011;2366;51.332;6.610;2022-09-03T11:23:28;3.70;;;1.57;;
4704;SDS011;2366;51.332;6.610;2022-09-03T11:25:59;2.50;;;1.63;;
4704;SDS011;2366;51.332;6.610;2022-09-03T11:28:36;2.50;;;1.67;;
4704;SDS011;2366;51.332;6.610;2022-09-03T11:34:07;1.97;;;1.87;;
4704;SDS011;2366;51.332;6.610;2022-09-03T11:36:40;5.53;;;2.40;;
4704;SDS011;2366;51.332;6.610;2022-09-03T11:39:39;1.40;;;1.30;;
4704;SDS011;2366;51.332;6.610;2022-09-03T11:42:04;2.17;;;1.73;;
4704;SDS011;2366;51.332;6.610;2022-09-03T11:44:40;3.20;;;1.80;;
4704;SDS011;2366;51.332;6.610;2022-09-03T11:47:20;8.70;;;1.83;;
4704;SDS011;2366;51.332;6.610;2022-09-03T11:49:48;2.10;;;2.00;;
4704;SDS011;2366;51.332;6.610;2022-09-03T11:52:29;1.80;;;1.60;;
4704;SDS011;2366;51.332;6.610;2022-09-03T11:55:04;2.70;;;1.47;;
4704;SDS011;2366;51.332;6.610;2022-09-03T11:57:30;1.97;;;1.87;;
4704;SDS011;2366;51.332;6.610;2022-09-03T12:00:18;2.40;;;1.80;;
4704;SDS011;2366;51.332;6.610;2022-09-03T12:02:56;8.77;;;1.40;;
4704;SDS011;2366;51.332;6.610;2022-09-03T12:05:41;1.20;;;1.10;;
4704;SDS011;2366;51.332;6.610;2022-09-03T12:14:00;2.97;;;1.60;;
4704;SDS011;2366;51.332;6.610;2022-09-03T12:21:57;4.20;;;1.60;;
4704;SDS011;2366;51.332;6.610;2022-09-03T12:24:26;7.37;;;2.13;;
4704;SDS011;2366;51.332;6.610;2022-09-03T12:26:56;4.17;;;1.80;;
4704;SDS011;2366;51.332;6.610;2022-09-03T12:29:23;1.83;;;1.57;;
4704;SDS011;2366;51.332;6.610;2022-09-03T12:31:51;2.93;;;1.40;;
4704;SDS011;2366;51.332;6.610;2022-09-03T12:34:20;9.20;;;1.70;;
4704;SDS011;2366;51.332;6.610;2022-09-03T12:36:47;3.17;;;1.57;;
4704;SDS011;2366;51.332;6.610;2022-09-03T12:39:21;2.40;;;2.07;;
4704;SDS011;2366;51.332;6.610;2022-09-03T12:41:59;1.43;;;1.40;;
4704;SDS011;2366;51.332;6.610;2022-09-03T12:44:31;1.57;;;1.30;;
4704;SDS011;2366;51.332;6.610;2022-09-03T12:49:35;5.00;;;2.20;;
4704;SDS011;2366;51.332;6.610;2022-09-03T12:52:15;2.77;;;2.00;;
4704;SDS011;2366;51.332;6.610;2022-09-03T12:54:50;2.40;;;1.77;;
4704;SDS011;2366;51.332;6.610;2022-09-03T12:57:22;2.27;;;1.20;;
4704;SDS011;2366;51.332;6.610;2022-09-03T12:59:53;2.00;;;1.90;;
4704;SDS011;2366;51.332;6.610;2022-09-03T13:02:26;2.13;;;1.63;;
4704;SDS011;2366;51.332;6.610;2022-09-03T13:05:00;2.90;;;2.10;;
4704;SDS011;2366;51.332;6.610;2022-09-03T13:07:28;2.23;;;2.03;;
4704;SDS011;2366;51.332;6.610;2022-09-03T13:10:03;1.57;;;1.30;;
4704;SDS011;2366;51.332;6.610;2022-09-03T13:12:32;1.67;;;1.57;;
4704;SDS011;2366;51.332;6.610;2022-09-03T13:15:07;1.70;;;1.60;;
4704;SDS011;2366;51.332;6.610;2022-09-03T13:17:40;1.80;;;1.50;;
4704;SDS011;2366;51.332;6.610;2022-09-03T13:20:39;2.10;;;1.90;;
4704;SDS011;2366;51.332;6.610;2022-09-03T13:26:00;1.87;;;1.77;;
4704;SDS011;2366;51.332;6.610;2022-09-03T13:31:41;6.00;;;1.87;;
4704;SDS011;2366;51.332;6.610;2022-09-03T13:37:11;3.13;;;2.43;;
4704;SDS011;2366;51.332;6.610;2022-09-03T13:39:48;1.60;;;1.37;;
4704;SDS011;2366;51.332;6.610;2022-09-03T13:42:24;2.43;;;1.33;;
4704;SDS011;2366;51.332;6.610;2022-09-03T13:48:03;1.80;;;1.70;;
4704;SDS011;2366;51.332;6.610;2022-09-03T13:51:02;2.90;;;1.93;;
4704;SDS011;2366;51.332;6.610;2022-09-03T13:53:35;1.93;;;1.83;;
4704;SDS011;2366;51.332;6.610;2022-09-03T13:56:05;3.90;;;1.90;;
4704;SDS011;2366;51.332;6.610;2022-09-03T13:58:41;1.27;;;1.17;;
4704;SDS011;2366;51.332;6.610;2022-09-03T14:03:59;2.57;;;2.33;;
4704;SDS011;2366;51.332;6.610;2022-09-03T14:09:41;2.77;;;1.67;;
4704;SDS011;2366;51.332;6.610;2022-09-03T14:12:52;1.70;;;1.60;;
4704;SDS011;2366;51.332;6.610;2022-09-03T14:15:17;2.03;;;1.83;;
4704;SDS011;2366;51.332;6.610;2022-09-03T14:18:08;2.67;;;2.03;;
4704;SDS011;2366;51.332;6.610;2022-09-03T14:21:28;2.30;;;2.10;;
4704;SDS011;2366;51.332;6.610;2022-09-03T14:24:03;2.10;;;1.80;;
4704;SDS011;2366;51.332;6.610;2022-09-03T14:26:36;1.97;;;1.50;;
4704;SDS011;2366;51.332;6.610;2022-09-03T14:31:48;4.23;;;2.10;;
4704;SDS011;2366;51.332;6.610;2022-09-03T14:37:49;2.17;;;2.07;;
4704;SDS011;2366;51.332;6.610;2022-09-03T14:40:44;3.13;;;1.90;;
4704;SDS011;2366;51.332;6.610;2022-09-03T14:43:21;2.00;;;1.90;;
4704;SDS011;2366;51.332;6.610;2022-09-03T14:49:07;2.00;;;1.70;;
4704;SDS011;2366;51.332;6.610;2022-09-03T15:00:13;1.90;;;1.73;;
4704;SDS011;2366;51.332;6.610;2022-09-03T15:05:49;1.97;;;1.77;;
4704;SDS011;2366;51.332;6.610;2022-09-03T15:11:15;1.90;;;1.73;;
4704;SDS011;2366;51.332;6.610;2022-09-03T15:13:48;2.57;;;1.73;;
4704;SDS011;2366;51.332;6.610;2022-09-03T15:22:28;3.63;;;2.17;;
4704;SDS011;2366;51.332;6.610;2022-09-03T15:30:17;2.70;;;2.07;;
4704;SDS011;2366;51.332;6.610;2022-09-03T15:44:14;2.20;;;1.60;;
4704;SDS011;2366;51.332;6.610;2022-09-03T15:52:05;3.13;;;1.20;;
4704;SDS011;2366;51.332;6.610;2022-09-03T15:55:04;1.50;;;1.40;;
4704;SDS011;2366;51.332;6.610;2022-09-03T15:57:52;2.10;;;1.90;;
4704;SDS011;2366;51.332;6.610;2022-09-03T16:00:33;3.87;;;1.70;;
4704;SDS011;2366;51.332;6.610;2022-09-03T16:03:14;2.33;;;2.10;;
4704;SDS011;2366;51.332;6.610;2022-09-03T16:06:02;2.33;;;1.47;;
4704;SDS011;2366;51.332;6.610;2022-09-03T16:08:41;1.80;;;1.70;;
4704;SDS011;2366;51.332;6.610;2022-09-03T16:13:44;1.90;;;1.53;;
4704;SDS011;2366;51.332;6.610;2022-09-03T16:19:17;1.73;;;1.63;;
4704;SDS011;2366;51.332;6.610;2022-09-03T16:22:00;1.43;;;1.33;;
4704;SDS011;2366;51.332;6.610;2022-09-03T16:27:21;1.43;;;1.33;;
4704;SDS011;2366;51.332;6.610;2022-09-03T16:29:57;1.67;;;1.30;;
4704;SDS011;2366;51.332;6.610;2022-09-03T17:13:13;4.87;;;2.03;;
4704;SDS011;2366;51.332;6.610;2022-09-03T17:18:50;3.47;;;2.10;;
4704;SDS011;2366;51.332;6.610;2022-09-03T17:30:03;3.20;;;2.23;;
4704;SDS011;2366;51.332;6.610;2022-09-03T17:35:46;2.20;;;2.00;;
4704;SDS011;2366;51.332;6.610;2022-09-03T17:41:29;2.50;;;2.30;;
4704;SDS011;2366;51.332;6.610;2022-09-03T17:49:28;2.03;;;1.93;;
4704;SDS011;2366;51.332;6.610;2022-09-03T17:52:10;3.10;;;2.40;;
4704;SDS011;2366;51.332;6.610;2022-09-03T17:54:50;5.40;;;2.30;;
4704;SDS011;2366;51.332;6.610;2022-09-03T17:57:29;2.53;;;2.33;;
4704;SDS011;2366;51.332;6.610;2022-09-03T18:00:09;4.47;;;2.23;;
4704;SDS011;2366;51.332;6.610;2022-09-03T18:05:20;2.90;;;2.47;;
4704;SDS011;2366;51.332;6.610;2022-09-03T18:10:47;3.47;;;2.03;;
4704;SDS011;2366;51.332;6.610;2022-09-03T18:13:26;2.13;;;1.90;;
4704;SDS011;2366;51.332;6.610;2022-09-03T18:16:08;2.40;;;1.83;;
4704;SDS011;2366;51.332;6.610;2022-09-03T18:18:42;2.03;;;1.93;;
4704;SDS011;2366;51.332;6.610;2022-09-03T18:21:13;2.40;;;2.20;;
4704;SDS011;2366;51.332;6.610;2022-09-03T18:27:19;2.73;;;1.97;;
4704;SDS011;2366;51.332;6.610;2022-09-03T18:30:10;4.13;;;2.43;;
4704;SDS011;2366;51.332;6.610;2022-09-03T18:32:56;3.17;;;2.00;;
4704;SDS011;2366;51.332;6.610;2022-09-03T18:35:44;1.80;;;1.67;;
4704;SDS011;2366;51.332;6.610;2022-09-03T18:38:30;1.73;;;1.63;;
4704;SDS011;2366;51.332;6.610;2022-09-03T18:41:25;1.67;;;1.57;;
4704;SDS011;2366;51.332;6.610;2022-09-03T18:57:15;2.20;;;1.67;;
4704;SDS011;2366;51.332;6.610;2022-09-03T19:00:12;2.47;;;2.20;;
4704;SDS011;2366;51.332;6.610;2022-09-03T19:09:05;2.90;;;2.03;;
4704;SDS011;2366;51.332;6.610;2022-09-03T19:20:36;1.83;;;1.73;;
4704;SDS011;2366;51.332;6.610;2022-09-03T19:23:27;4.23;;;1.77;;
4704;SDS011;2366;51.332;6.610;2022-09-03T19:26:18;5.90;;;2.50;;
4704;SDS011;2366;51.332;6.610;2022-09-03T19:29:18;2.13;;;1.93;;
4704;SDS011;2366;51.332;6.610;2022-09-03T19:32:23;3.10;;;2.23;;
4704;SDS011;2366;51.332;6.610;2022-09-03T19:35:30;2.30;;;2.10;;
4704;SDS011;2366;51.332;6.610;2022-09-03T19:41:19;2.00;;;1.77;;
4704;SDS011;2366;51.332;6.610;2022-09-03T19:46:55;2.97;;;2.33;;
4704;SDS011;2366;51.332;6.610;2022-09-03T19:49:46;2.50;;;2.00;;
4704;SDS011;2366;51.332;6.610;2022-09-03T19:55:44;2.60;;;2.00;;
4704;SDS011;2366;51.332;6.610;2022-09-03T19:58:40;2.50;;;2.30;;
4704;SDS011;2366;51.332;6.610;2022-09-03T20:01:34;9.20;;;4.10;;
4704;SDS011;2366;51.332;6.610;2022-09-03T20:04:19;2.53;;;2.33;;
4704;SDS011;2366;51.332;6.610;2022-09-03T20:07:08;2.70;;;2.50;;
4704;SDS011;2366;51.332;6.610;2022-09-03T20:09:54;3.43;;;2.33;;
4704;SDS011;2366;51.332;6.610;2022-09-03T20:12:46;3.57;;;2.53;;
4704;SDS011;2366;51.332;6.610;2022-09-03T20:15:21;4.23;;;2.40;;
4704;SDS011;2366;51.332;6.610;2022-09-03T20:18:02;2.53;;;2.33;;
4704;SDS011;2366;51.332;6.610;2022-09-03T20:23:32;7.05;;;2.35;;
4704;SDS011;2366;51.332;6.610;2022-09-03T20:31:37;3.00;;;2.07;;
4704;SDS011;2366;51.332;6.610;2022-09-03T20:34:24;2.50;;;2.30;;
4704;SDS011;2366;51.332;6.610;2022-09-03T20:37:06;3.42;;;2.78;;
4704;SDS011;2366;51.332;6.610;2022-09-03T20:40:03;5.20;;;2.77;;
4704;SDS011;2366;51.332;6.610;2022-09-03T20:42:46;3.07;;;2.37;;
4704;SDS011;2366;51.332;6.610;2022-09-03T20:45:18;2.28;;;1.83;;
4704;SDS011;2366;51.332;6.610;2022-09-03T20:48:12;2.58;;;2.22;;
4704;SDS011;2366;51.332;6.610;2022-09-03T20:59:13;2.78;;;2.47;;
4704;SDS011;2366;51.332;6.610;2022-09-03T21:04:57;2.97;;;2.75;;
4704;SDS011;2366;51.332;6.610;2022-09-03T21:16:23;2.40;;;2.05;;
4704;SDS011;2366;51.332;6.610;2022-09-03T21:24:14;6.13;;;3.22;;
4704;SDS011;2366;51.332;6.610;2022-09-03T21:26:41;3.08;;;2.50;;
4704;SDS011;2366;51.332;6.610;2022-09-03T21:29:18;3.53;;;2.70;;
4704;SDS011;2366;51.332;6.610;2022-09-03T21:32:07;3.95;;;2.90;;
4704;SDS011;2366;51.332;6.610;2022-09-03T21:37:22;4.00;;;2.97;;
4704;SDS011;2366;51.332;6.610;2022-09-03T21:39:52;2.80;;;2.60;;